sensor_id;sensor_type;location;lat;lon;timestamp;temperature;humidity
29687;DHT22;16599;47.078;15.536;2023-06-14T00:01:56;12.90;99.90
29687;DHT22;16599;47.078;15.536;2023-06-14T00:04:23;12.80;99.90
29687;DHT22;16599;47.078;15.536;2023-06-14T00:06:52;12.90;99.90
29687;DHT22;16599;47.078;15.536;2023-06-14T00:09:19;12.70;99.90
29687;DHT22;16599;47.078;15.536;2023-06-14T00:11:46;12.70;99.90
29687;DHT22;16599;47.078;15.536;2023-06-14T00:14:13;12.80;99.90
29687;DHT22;16599;47.078;15.536;2023-06-14T00:16:40;12.70;99.90
29687;DHT22;16599;47.078;15.536;2023-06-14T00:19:09;12.90;99.90
29687;DHT22;16599;47.078;15.536;2023-06-14T00:21:37;12.80;99.90
29687;DHT22;16599;47.078;15.536;2023-06-14T00:24:04;12.70;99.90
29687;DHT22;16599;47.078;15.536;2023-06-14T00:26:31;12.70;99.90
29687;DHT22;16599;47.078;15.536;2023-06-14T00:28:59;12.70;99.90
29687;DHT22;16599;47.078;15.536;2023-06-14T00:31:26;12.80;99.90
29687;DHT22;16599;47.078;15.536;2023-06-14T00:33:53;12.80;99.90
29687;DHT22;16599;47.078;15.536;2023-06-14T00:36:19;12.90;99.90
29687;DHT22;16599;47.078;15.536;2023-06-14T00:38:46;12.90;99.90
29687;DHT22;16599;47.078;15.536;2023-06-14T00:41:13;12.90;99.90
29687;DHT22;16599;47.078;15.536;2023-06-14T00:43:40;12.90;99.90
29687;DHT22;16599;47.078;15.536;2023-06-14T00:46:07;12.90;99.90
29687;DHT22;16599;47.078;15.536;2023-06-14T00:48:35;13.00;99.90
29687;DHT22;16599;47.078;15.536;2023-06-14T00:51:02;13.00;99.90
29687;DHT22;16599;47.078;15.536;2023-06-14T00:53:31;12.90;99.90
29687;DHT22;16599;47.078;15.536;2023-06-14T00:56:02;12.90;99.90
29687;DHT22;16599;47.078;15.536;2023-06-14T00:58:30;12.90;99.90
29687;DHT22;16599;47.078;15.536;2023-06-14T01:00:58;12.80;99.90
29687;DHT22;16599;47.078;15.536;2023-06-14T01:03:24;12.90;99.90
29687;DHT22;16599;47.078;15.536;2023-06-14T01:06:12;13.00;99.90
29687;DHT22;16599;47.078;15.536;2023-06-14T01:08:48;13.00;99.90
29687;DHT22;16599;47.078;15.536;2023-06-14T01:11:33;13.10;99.90
29687;DHT22;16599;47.078;15.536;2023-06-14T01:14:05;13.10;99.90
29687;DHT22;16599;47.078;15.536;2023-06-14T01:16:32;13.20;99.90
29687;DHT22;16599;47.078;15.536;2023-06-14T01:19:03;13.20;99.90
29687;DHT22;16599;47.078;15.536;2023-06-14T01:21:31;13.10;99.90
29687;DHT22;16599;47.078;15.536;2023-06-14T01:24:00;13.00;99.90
29687;DHT22;16599;47.078;15.536;2023-06-14T01:26:30;12.80;99.90
29687;DHT22;16599;47.078;15.536;2023-06-14T01:28:56;12.70;99.90
29687;DHT22;16599;47.078;15.536;2023-06-14T01:31:25;12.70;99.90
29687;DHT22;16599;47.078;15.536;2023-06-14T01:33:52;12.70;99.90
29687;DHT22;16599;47.078;15.536;2023-06-14T01:36:20;12.70;99.90
29687;DHT22;16599;47.078;15.536;2023-06-14T01:38:47;12.60;99.90
29687;DHT22;16599;47.078;15.536;2023-06-14T01:41:17;12.50;99.90
29687;DHT22;16599;47.078;15.536;2023-06-14T01:43:45;12.40;99.90
29687;DHT22;16599;47.078;15.536;2023-06-14T01:46:14;12.30;99.90
29687;DHT22;16599;47.078;15.536;2023-06-14T01:48:42;12.30;99.90
29687;DHT22;16599;47.078;15.536;2023-06-14T01:51:09;12.20;99.90
29687;DHT22;16599;47.078;15.536;2023-06-14T01:53:37;12.30;99.90
29687;DHT22;16599;47.078;15.536;2023-06-14T01:56:04;12.50;99.90
29687;DHT22;16599;47.078;15.536;2023-06-14T01:58:31;12.60;99.90
29687;DHT22;16599;47.078;15.536;2023-06-14T02:00:58;12.60;99.90
29687;DHT22;16599;47.078;15.536;2023-06-14T02:03:27;12.50;99.90
29687;DHT22;16599;47.078;15.536;2023-06-14T02:05:54;12.30;99.90
29687;DHT22;16599;47.078;15.536;2023-06-14T02:08:22;12.40;99.90
29687;DHT22;16599;47.078;15.536;2023-06-14T02:10:50;12.40;99.90
29687;DHT22;16599;47.078;15.536;2023-06-14T02:13:17;12.30;99.90
29687;DHT22;16599;47.078;15.536;2023-06-14T02:15:44;12.20;99.90
29687;DHT22;16599;47.078;15.536;2023-06-14T02:18:11;12.20;99.90
29687;DHT22;16599;47.078;15.536;2023-06-14T02:20:39;12.20;99.90
29687;DHT22;16599;47.078;15.536;2023-06-14T02:23:06;12.20;99.90
29687;DHT22;16599;47.078;15.536;2023-06-14T02:25:34;12.20;99.90
29687;DHT22;16599;47.078;15.536;2023-06-14T02:28:02;12.10;99.90
29687;DHT22;16599;47.078;15.536;2023-06-14T02:30:29;12.10;99.90
29687;DHT22;16599;47.078;15.536;2023-06-14T02:32:56;12.20;99.90
29687;DHT22;16599;47.078;15.536;2023-06-14T02:35:23;12.20;99.90
29687;DHT22;16599;47.078;15.536;2023-06-14T02:37:53;12.30;99.90
29687;DHT22;16599;47.078;15.536;2023-06-14T02:40:20;12.30;99.90
29687;DHT22;16599;47.078;15.536;2023-06-14T02:42:47;12.20;99.90
29687;DHT22;16599;47.078;15.536;2023-06-14T02:45:14;12.20;99.90
29687;DHT22;16599;47.078;15.536;2023-06-14T02:47:41;12.30;99.90
29687;DHT22;16599;47.078;15.536;2023-06-14T02:50:08;12.40;99.90
29687;DHT22;16599;47.078;15.536;2023-06-14T02:52:35;12.50;99.90
29687;DHT22;16599;47.078;15.536;2023-06-14T02:55:02;12.50;99.90
29687;DHT22;16599;47.078;15.536;2023-06-14T02:57:29;12.40;99.90
29687;DHT22;16599;47.078;15.536;2023-06-14T02:59:56;12.40;99.90
29687;DHT22;16599;47.078;15.536;2023-06-14T03:02:23;12.30;99.90
29687;DHT22;16599;47.078;15.536;2023-06-14T03:04:50;12.30;99.90
29687;DHT22;16599;47.078;15.536;2023-06-14T03:07:17;12.30;99.90
29687;DHT22;16599;47.078;15.536;2023-06-14T03:09:49;12.40;99.90
29687;DHT22;16599;47.078;15.536;2023-06-14T03:12:16;12.50;99.90
29687;DHT22;16599;47.078;15.536;2023-06-14T03:14:43;12.40;99.90
29687;DHT22;16599;47.078;15.536;2023-06-14T03:17:12;12.10;99.90
29687;DHT22;16599;47.078;15.536;2023-06-14T03:19:39;12.20;99.90
29687;DHT22;16599;47.078;15.536;2023-06-14T03:22:08;12.30;99.90
29687;DHT22;16599;47.078;15.536;2023-06-14T03:24:35;12.30;99.90
29687;DHT22;16599;47.078;15.536;2023-06-14T03:27:04;12.40;99.90
29687;DHT22;16599;47.078;15.536;2023-06-14T03:29:30;12.20;99.90
29687;DHT22;16599;47.078;15.536;2023-06-14T03:32:02;12.00;99.90
29687;DHT22;16599;47.078;15.536;2023-06-14T03:34:29;11.90;99.90
29687;DHT22;16599;47.078;15.536;2023-06-14T03:36:56;12.00;99.90
29687;DHT22;16599;47.078;15.536;2023-06-14T03:39:22;12.10;99.90
29687;DHT22;16599;47.078;15.536;2023-06-14T03:41:49;12.00;99.90
29687;DHT22;16599;47.078;15.536;2023-06-14T03:44:17;11.90;99.90
29687;DHT22;16599;47.078;15.536;2023-06-14T03:46:45;12.00;99.90
29687;DHT22;16599;47.078;15.536;2023-06-14T03:49:13;12.10;99.90
29687;DHT22;16599;47.078;15.536;2023-06-14T03:51:40;12.20;99.90
29687;DHT22;16599;47.078;15.536;2023-06-14T03:54:07;12.40;99.90
29687;DHT22;16599;47.078;15.536;2023-06-14T03:56:37;12.40;99.90
29687;DHT22;16599;47.078;15.536;2023-06-14T03:59:04;12.40;99.90
29687;DHT22;16599;47.078;15.536;2023-06-14T04:01:31;12.40;99.90
29687;DHT22;16599;47.078;15.536;2023-06-14T04:04:00;12.50;99.90
29687;DHT22;16599;47.078;15.536;2023-06-14T04:06:28;12.50;99.90
29687;DHT22;16599;47.078;15.536;2023-06-14T04:08:59;12.50;99.90
29687;DHT22;16599;47.078;15.536;2023-06-14T04:11:30;12.60;99.90
29687;DHT22;16599;47.078;15.536;2023-06-14T04:13:58;12.80;99.90
29687;DHT22;16599;47.078;15.536;2023-06-14T04:16:25;12.90;99.90
29687;DHT22;16599;47.078;15.536;2023-06-14T04:18:54;12.80;99.90
29687;DHT22;16599;47.078;15.536;2023-06-14T04:21:21;12.80;99.90
29687;DHT22;16599;47.078;15.536;2023-06-14T04:23:50;12.90;99.90
29687;DHT22;16599;47.078;15.536;2023-06-14T04:26:19;12.90;99.90
29687;DHT22;16599;47.078;15.536;2023-06-14T04:28:49;12.80;99.90
29687;DHT22;16599;47.078;15.536;2023-06-14T04:31:17;12.80;99.90
29687;DHT22;16599;47.078;15.536;2023-06-14T04:33:45;12.90;99.90
29687;DHT22;16599;47.078;15.536;2023-06-14T04:36:13;13.00;99.90
29687;DHT22;16599;47.078;15.536;2023-06-14T04:38:44;13.00;99.90
29687;DHT22;16599;47.078;15.536;2023-06-14T04:41:15;13.10;99.90
29687;DHT22;16599;47.078;15.536;2023-06-14T04:43:44;13.20;99.90
29687;DHT22;16599;47.078;15.536;2023-06-14T04:46:15;13.20;99.90
29687;DHT22;16599;47.078;15.536;2023-06-14T04:48:42;13.30;99.90
29687;DHT22;16599;47.078;15.536;2023-06-14T04:51:09;13.30;99.90
29687;DHT22;16599;47.078;15.536;2023-06-14T05:03:56;13.30;99.90
29687;DHT22;16599;47.078;15.536;2023-06-14T05:06:23;13.40;99.90
29687;DHT22;16599;47.078;15.536;2023-06-14T05:08:50;13.40;99.90
29687;DHT22;16599;47.078;15.536;2023-06-14T05:11:17;13.40;99.90
29687;DHT22;16599;47.078;15.536;2023-06-14T05:13:44;13.50;99.90
29687;DHT22;16599;47.078;15.536;2023-06-14T05:16:11;13.50;99.90
29687;DHT22;16599;47.078;15.536;2023-06-14T05:18:39;13.50;99.90
29687;DHT22;16599;47.078;15.536;2023-06-14T05:21:06;13.50;99.90
29687;DHT22;16599;47.078;15.536;2023-06-14T05:23:33;13.60;99.90
29687;DHT22;16599;47.078;15.536;2023-06-14T05:26:00;13.60;99.90
29687;DHT22;16599;47.078;15.536;2023-06-14T05:28:29;13.70;99.90
29687;DHT22;16599;47.078;15.536;2023-06-14T05:30:57;13.70;99.90
29687;DHT22;16599;47.078;15.536;2023-06-14T05:33:24;13.60;99.90
29687;DHT22;16599;47.078;15.536;2023-06-14T05:35:51;13.60;99.90
29687;DHT22;16599;47.078;15.536;2023-06-14T05:38:18;13.60;99.90
29687;DHT22;16599;47.078;15.536;2023-06-14T05:40:45;13.60;99.90
29687;DHT22;16599;47.078;15.536;2023-06-14T05:43:12;13.70;99.90
29687;DHT22;16599;47.078;15.536;2023-06-14T05:45:39;13.70;99.90
29687;DHT22;16599;47.078;15.536;2023-06-14T05:48:06;13.70;99.90
29687;DHT22;16599;47.078;15.536;2023-06-14T05:50:33;13.70;99.90
29687;DHT22;16599;47.078;15.536;2023-06-14T05:53:00;13.70;99.90
29687;DHT22;16599;47.078;15.536;2023-06-14T05:55:27;13.70;99.90
29687;DHT22;16599;47.078;15.536;2023-06-14T05:57:54;13.80;99.90
29687;DHT22;16599;47.078;15.536;2023-06-14T06:00:21;13.70;99.90
29687;DHT22;16599;47.078;15.536;2023-06-14T06:02:48;13.60;99.90
29687;DHT22;16599;47.078;15.536;2023-06-14T06:05:15;13.60;99.90
29687;DHT22;16599;47.078;15.536;2023-06-14T06:07:42;13.70;99.90
29687;DHT22;16599;47.078;15.536;2023-06-14T06:10:12;13.80;99.90
29687;DHT22;16599;47.078;15.536;2023-06-14T06:12:40;13.70;99.90
29687;DHT22;16599;47.078;15.536;2023-06-14T06:15:07;13.60;99.90
29687;DHT22;16599;47.078;15.536;2023-06-14T06:17:39;13.30;99.90
29687;DHT22;16599;47.078;15.536;2023-06-14T06:20:22;13.20;99.90
29687;DHT22;16599;47.078;15.536;2023-06-14T06:22:55;13.20;99.90
29687;DHT22;16599;47.078;15.536;2023-06-14T06:25:22;13.30;99.90
29687;DHT22;16599;47.078;15.536;2023-06-14T06:27:50;13.40;99.90
29687;DHT22;16599;47.078;15.536;2023-06-14T06:30:17;13.50;99.90
29687;DHT22;16599;47.078;15.536;2023-06-14T06:32:43;13.60;99.90
29687;DHT22;16599;47.078;15.536;2023-06-14T06:35:11;13.60;99.90
29687;DHT22;16599;47.078;15.536;2023-06-14T06:37:41;13.20;99.90
29687;DHT22;16599;47.078;15.536;2023-06-14T06:40:08;12.80;99.90
29687;DHT22;16599;47.078;15.536;2023-06-14T06:42:36;12.60;99.90
29687;DHT22;16599;47.078;15.536;2023-06-14T06:45:04;12.60;99.90
29687;DHT22;16599;47.078;15.536;2023-06-14T06:47:31;12.80;99.90
29687;DHT22;16599;47.078;15.536;2023-06-14T06:49:58;12.80;99.90
29687;DHT22;16599;47.078;15.536;2023-06-14T06:52:24;12.80;99.90
29687;DHT22;16599;47.078;15.536;2023-06-14T06:54:51;12.80;99.90
29687;DHT22;16599;47.078;15.536;2023-06-14T06:57:21;12.80;99.90
29687;DHT22;16599;47.078;15.536;2023-06-14T06:59:52;12.80;99.90
29687;DHT22;16599;47.078;15.536;2023-06-14T07:02:19;12.90;99.90
29687;DHT22;16599;47.078;15.536;2023-06-14T07:04:46;13.00;99.90
29687;DHT22;16599;47.078;15.536;2023-06-14T07:07:13;13.10;99.90
29687;DHT22;16599;47.078;15.536;2023-06-14T07:09:40;13.10;99.90
29687;DHT22;16599;47.078;15.536;2023-06-14T07:12:09;13.10;99.90
29687;DHT22;16599;47.078;15.536;2023-06-14T07:14:35;12.90;99.90
29687;DHT22;16599;47.078;15.536;2023-06-14T07:17:02;12.80;99.90
29687;DHT22;16599;47.078;15.536;2023-06-14T07:19:29;12.70;99.90
29687;DHT22;16599;47.078;15.536;2023-06-14T07:21:57;12.70;99.90
29687;DHT22;16599;47.078;15.536;2023-06-14T07:24:24;12.70;99.90
29687;DHT22;16599;47.078;15.536;2023-06-14T07:26:52;12.70;99.90
29687;DHT22;16599;47.078;15.536;2023-06-14T07:29:18;12.80;99.90
29687;DHT22;16599;47.078;15.536;2023-06-14T07:31:46;12.70;99.90
29687;DHT22;16599;47.078;15.536;2023-06-14T07:34:13;12.70;99.90
29687;DHT22;16599;47.078;15.536;2023-06-14T07:36:40;12.60;99.90
29687;DHT22;16599;47.078;15.536;2023-06-14T07:39:06;12.70;99.90
29687;DHT22;16599;47.078;15.536;2023-06-14T07:41:34;12.90;99.90
29687;DHT22;16599;47.078;15.536;2023-06-14T07:44:01;12.90;99.90
29687;DHT22;16599;47.078;15.536;2023-06-14T07:46:27;12.90;99.90
29687;DHT22;16599;47.078;15.536;2023-06-14T07:48:54;12.90;99.90
29687;DHT22;16599;47.078;15.536;2023-06-14T07:51:22;12.90;99.90
29687;DHT22;16599;47.078;15.536;2023-06-14T07:53:49;12.90;99.90
29687;DHT22;16599;47.078;15.536;2023-06-14T07:56:16;12.80;99.90
29687;DHT22;16599;47.078;15.536;2023-06-14T07:58:43;12.80;99.90
29687;DHT22;16599;47.078;15.536;2023-06-14T08:01:10;12.80;99.90
29687;DHT22;16599;47.078;15.536;2023-06-14T08:03:38;12.70;99.90
29687;DHT22;16599;47.078;15.536;2023-06-14T08:06:06;12.60;99.90
29687;DHT22;16599;47.078;15.536;2023-06-14T08:08:33;12.50;99.90
29687;DHT22;16599;47.078;15.536;2023-06-14T08:11:00;12.50;99.90
29687;DHT22;16599;47.078;15.536;2023-06-14T08:13:27;12.50;99.90
29687;DHT22;16599;47.078;15.536;2023-06-14T08:15:54;12.40;99.90
29687;DHT22;16599;47.078;15.536;2023-06-14T08:18:22;12.40;99.90
29687;DHT22;16599;47.078;15.536;2023-06-14T08:20:49;12.40;99.90
29687;DHT22;16599;47.078;15.536;2023-06-14T08:23:16;12.60;99.90
29687;DHT22;16599;47.078;15.536;2023-06-14T08:25:45;12.60;99.90
29687;DHT22;16599;47.078;15.536;2023-06-14T08:28:12;12.60;99.90
29687;DHT22;16599;47.078;15.536;2023-06-14T08:30:39;12.80;99.90
29687;DHT22;16599;47.078;15.536;2023-06-14T08:33:06;12.90;99.90
29687;DHT22;16599;47.078;15.536;2023-06-14T08:35:43;13.00;99.90
29687;DHT22;16599;47.078;15.536;2023-06-14T08:38:11;12.90;99.90
29687;DHT22;16599;47.078;15.536;2023-06-14T08:40:39;12.70;99.90
29687;DHT22;16599;47.078;15.536;2023-06-14T08:43:07;12.70;99.90
29687;DHT22;16599;47.078;15.536;2023-06-14T08:45:34;12.70;99.90
29687;DHT22;16599;47.078;15.536;2023-06-14T08:48:01;12.70;99.90
29687;DHT22;16599;47.078;15.536;2023-06-14T08:50:30;12.90;99.90
29687;DHT22;16599;47.078;15.536;2023-06-14T08:53:00;12.90;99.90
29687;DHT22;16599;47.078;15.536;2023-06-14T08:55:31;12.80;99.90
29687;DHT22;16599;47.078;15.536;2023-06-14T08:58:02;12.90;99.90
29687;DHT22;16599;47.078;15.536;2023-06-14T09:00:30;12.90;99.90
29687;DHT22;16599;47.078;15.536;2023-06-14T09:02:57;12.80;99.90
29687;DHT22;16599;47.078;15.536;2023-06-14T09:05:26;12.90;99.90
29687;DHT22;16599;47.078;15.536;2023-06-14T09:07:53;13.10;99.90
29687;DHT22;16599;47.078;15.536;2023-06-14T09:10:22;13.10;99.90
29687;DHT22;16599;47.078;15.536;2023-06-14T09:12:51;13.10;99.90
29687;DHT22;16599;47.078;15.536;2023-06-14T09:15:18;13.20;99.90
29687;DHT22;16599;47.078;15.536;2023-06-14T09:17:45;13.20;99.90
29687;DHT22;16599;47.078;15.536;2023-06-14T09:20:12;13.30;99.90
29687;DHT22;16599;47.078;15.536;2023-06-14T09:22:46;13.30;99.90
29687;DHT22;16599;47.078;15.536;2023-06-14T09:25:13;13.30;99.90
29687;DHT22;16599;47.078;15.536;2023-06-14T09:28:02;13.20;99.90
29687;DHT22;16599;47.078;15.536;2023-06-14T09:30:29;13.10;99.90
29687;DHT22;16599;47.078;15.536;2023-06-14T09:32:55;12.90;99.90
29687;DHT22;16599;47.078;15.536;2023-06-14T09:35:27;13.00;99.90
29687;DHT22;16599;47.078;15.536;2023-06-14T09:37:56;13.00;99.90
29687;DHT22;16599;47.078;15.536;2023-06-14T09:40:23;13.00;99.90
29687;DHT22;16599;47.078;15.536;2023-06-14T09:42:51;12.90;99.90
29687;DHT22;16599;47.078;15.536;2023-06-14T09:45:46;12.90;99.90
29687;DHT22;16599;47.078;15.536;2023-06-14T09:48:16;12.90;99.90
29687;DHT22;16599;47.078;15.536;2023-06-14T09:50:45;13.00;99.90
29687;DHT22;16599;47.078;15.536;2023-06-14T09:53:15;13.00;99.90
29687;DHT22;16599;47.078;15.536;2023-06-14T09:55:42;13.10;99.90
29687;DHT22;16599;47.078;15.536;2023-06-14T09:58:10;13.00;99.90
29687;DHT22;16599;47.078;15.536;2023-06-14T10:00:39;13.00;99.90
29687;DHT22;16599;47.078;15.536;2023-06-14T10:03:14;13.10;99.90
29687;DHT22;16599;47.078;15.536;2023-06-14T10:05:47;12.90;99.90
29687;DHT22;16599;47.078;15.536;2023-06-14T10:08:19;12.80;99.90
29687;DHT22;16599;47.078;15.536;2023-06-14T10:10:50;13.00;99.90
29687;DHT22;16599;47.078;15.536;2023-06-14T10:13:17;13.00;99.90
29687;DHT22;16599;47.078;15.536;2023-06-14T10:16:00;13.00;99.90
29687;DHT22;16599;47.078;15.536;2023-06-14T10:18:39;13.00;99.90
29687;DHT22;16599;47.078;15.536;2023-06-14T10:21:51;12.90;99.90
29687;DHT22;16599;47.078;15.536;2023-06-14T10:24:17;13.00;99.90
29687;DHT22;16599;47.078;15.536;2023-06-14T10:26:53;13.50;99.90
29687;DHT22;16599;47.078;15.536;2023-06-14T10:29:22;13.70;99.90
29687;DHT22;16599;47.078;15.536;2023-06-14T10:31:56;13.70;99.90
29687;DHT22;16599;47.078;15.536;2023-06-14T10:34:25;13.80;99.90
29687;DHT22;16599;47.078;15.536;2023-06-14T10:37:06;14.30;99.90
29687;DHT22;16599;47.078;15.536;2023-06-14T10:39:42;14.30;99.90
29687;DHT22;16599;47.078;15.536;2023-06-14T10:42:10;14.40;99.90
29687;DHT22;16599;47.078;15.536;2023-06-14T10:44:55;14.90;99.90
29687;DHT22;16599;47.078;15.536;2023-06-14T10:52:34;15.90;99.90
29687;DHT22;16599;47.078;15.536;2023-06-14T10:55:16;15.80;99.90
29687;DHT22;16599;47.078;15.536;2023-06-14T10:57:50;15.90;99.90
29687;DHT22;16599;47.078;15.536;2023-06-14T11:00:25;16.20;99.90
29687;DHT22;16599;47.078;15.536;2023-06-14T11:05:52;15.40;99.90
29687;DHT22;16599;47.078;15.536;2023-06-14T11:10:47;15.40;99.90
29687;DHT22;16599;47.078;15.536;2023-06-14T11:13:16;15.40;99.90
29687;DHT22;16599;47.078;15.536;2023-06-14T11:15:45;15.70;99.90
29687;DHT22;16599;47.078;15.536;2023-06-14T11:18:13;15.90;99.90
29687;DHT22;16599;47.078;15.536;2023-06-14T11:20:40;15.70;99.90
29687;DHT22;16599;47.078;15.536;2023-06-14T11:23:07;15.90;99.90
29687;DHT22;16599;47.078;15.536;2023-06-14T11:25:34;16.30;99.90
29687;DHT22;16599;47.078;15.536;2023-06-14T11:28:01;16.40;99.90
29687;DHT22;16599;47.078;15.536;2023-06-14T11:30:28;16.40;99.90
29687;DHT22;16599;47.078;15.536;2023-06-14T11:32:55;16.60;99.90
29687;DHT22;16599;47.078;15.536;2023-06-14T11:35:25;16.40;99.90
29687;DHT22;16599;47.078;15.536;2023-06-14T11:37:54;16.30;99.30
29687;DHT22;16599;47.078;15.536;2023-06-14T11:40:25;16.30;99.90
29687;DHT22;16599;47.078;15.536;2023-06-14T11:42:59;16.30;99.90
29687;DHT22;16599;47.078;15.536;2023-06-14T11:45:28;16.50;99.90
29687;DHT22;16599;47.078;15.536;2023-06-14T11:47:56;16.30;99.90
29687;DHT22;16599;47.078;15.536;2023-06-14T11:50:43;16.00;99.90
29687;DHT22;16599;47.078;15.536;2023-06-14T11:53:30;15.90;99.90
29687;DHT22;16599;47.078;15.536;2023-06-14T11:55:58;16.00;99.90
29687;DHT22;16599;47.078;15.536;2023-06-14T11:58:25;16.30;99.90
29687;DHT22;16599;47.078;15.536;2023-06-14T12:00:53;16.40;99.40
29687;DHT22;16599;47.078;15.536;2023-06-14T12:03:30;16.50;99.90
29687;DHT22;16599;47.078;15.536;2023-06-14T12:06:07;16.70;99.90
29687;DHT22;16599;47.078;15.536;2023-06-14T12:08:36;16.70;99.90
29687;DHT22;16599;47.078;15.536;2023-06-14T12:11:13;16.60;99.30
29687;DHT22;16599;47.078;15.536;2023-06-14T12:13:43;16.40;99.70
29687;DHT22;16599;47.078;15.536;2023-06-14T12:16:11;16.40;99.90
29687;DHT22;16599;47.078;15.536;2023-06-14T12:18:39;16.40;99.90
29687;DHT22;16599;47.078;15.536;2023-06-14T12:21:09;16.40;99.40
29687;DHT22;16599;47.078;15.536;2023-06-14T12:23:43;16.60;99.10
29687;DHT22;16599;47.078;15.536;2023-06-14T12:26:15;16.90;99.40
29687;DHT22;16599;47.078;15.536;2023-06-14T12:28:44;17.00;98.60
29687;DHT22;16599;47.078;15.536;2023-06-14T12:31:12;17.20;99.10
29687;DHT22;16599;47.078;15.536;2023-06-14T12:33:40;17.00;96.30
29687;DHT22;16599;47.078;15.536;2023-06-14T12:36:09;17.20;99.00
29687;DHT22;16599;47.078;15.536;2023-06-14T12:38:37;17.50;98.10
29687;DHT22;16599;47.078;15.536;2023-06-14T12:41:04;17.40;97.10
29687;DHT22;16599;47.078;15.536;2023-06-14T12:43:31;17.60;97.70
29687;DHT22;16599;47.078;15.536;2023-06-14T12:45:59;17.30;96.00
29687;DHT22;16599;47.078;15.536;2023-06-14T12:48:26;17.10;95.30
29687;DHT22;16599;47.078;15.536;2023-06-14T12:50:58;17.00;95.60
29687;DHT22;16599;47.078;15.536;2023-06-14T12:53:25;17.00;94.90
29687;DHT22;16599;47.078;15.536;2023-06-14T12:55:52;16.90;95.40
29687;DHT22;16599;47.078;15.536;2023-06-14T12:58:19;16.90;96.30
29687;DHT22;16599;47.078;15.536;2023-06-14T13:00:47;17.00;95.90
29687;DHT22;16599;47.078;15.536;2023-06-14T13:03:14;17.40;96.30
29687;DHT22;16599;47.078;15.536;2023-06-14T13:05:41;17.50;95.80
29687;DHT22;16599;47.078;15.536;2023-06-14T13:08:09;17.60;95.20
29687;DHT22;16599;47.078;15.536;2023-06-14T13:10:36;17.80;95.40
29687;DHT22;16599;47.078;15.536;2023-06-14T13:13:03;18.20;95.80
29687;DHT22;16599;47.078;15.536;2023-06-14T13:15:30;18.20;94.10
29687;DHT22;16599;47.078;15.536;2023-06-14T13:17:57;18.20;95.30
29687;DHT22;16599;47.078;15.536;2023-06-14T13:20:24;17.90;94.50
29687;DHT22;16599;47.078;15.536;2023-06-14T13:22:51;17.90;96.40
29687;DHT22;16599;47.078;15.536;2023-06-14T13:25:22;17.90;95.00
29687;DHT22;16599;47.078;15.536;2023-06-14T13:27:49;17.80;94.90
29687;DHT22;16599;47.078;15.536;2023-06-14T13:30:16;17.90;96.60
29687;DHT22;16599;47.078;15.536;2023-06-14T13:32:43;17.90;96.50
29687;DHT22;16599;47.078;15.536;2023-06-14T13:35:12;18.00;95.60
29687;DHT22;16599;47.078;15.536;2023-06-14T13:37:39;18.10;95.50
29687;DHT22;16599;47.078;15.536;2023-06-14T13:40:06;18.10;95.70
29687;DHT22;16599;47.078;15.536;2023-06-14T13:42:33;17.80;94.90
29687;DHT22;16599;47.078;15.536;2023-06-14T13:45:00;17.70;95.70
29687;DHT22;16599;47.078;15.536;2023-06-14T13:47:27;17.50;95.30
29687;DHT22;16599;47.078;15.536;2023-06-14T13:49:54;17.60;96.20
29687;DHT22;16599;47.078;15.536;2023-06-14T13:52:21;17.80;95.50
29687;DHT22;16599;47.078;15.536;2023-06-14T13:54:48;17.90;95.10
29687;DHT22;16599;47.078;15.536;2023-06-14T13:57:16;17.90;94.70
29687;DHT22;16599;47.078;15.536;2023-06-14T13:59:43;17.90;94.70
29687;DHT22;16599;47.078;15.536;2023-06-14T14:02:12;17.60;95.00
29687;DHT22;16599;47.078;15.536;2023-06-14T14:04:39;17.50;96.40
29687;DHT22;16599;47.078;15.536;2023-06-14T14:07:06;17.60;95.90
29687;DHT22;16599;47.078;15.536;2023-06-14T14:09:34;17.70;94.30
29687;DHT22;16599;47.078;15.536;2023-06-14T14:12:02;17.80;95.50
29687;DHT22;16599;47.078;15.536;2023-06-14T14:14:31;17.50;95.10
29687;DHT22;16599;47.078;15.536;2023-06-14T14:16:58;17.60;96.20
29687;DHT22;16599;47.078;15.536;2023-06-14T14:19:25;17.80;94.50
29687;DHT22;16599;47.078;15.536;2023-06-14T14:21:52;17.80;95.70
29687;DHT22;16599;47.078;15.536;2023-06-14T14:24:20;17.90;95.30
29687;DHT22;16599;47.078;15.536;2023-06-14T14:26:48;17.90;94.90
29687;DHT22;16599;47.078;15.536;2023-06-14T14:29:16;17.80;94.30
29687;DHT22;16599;47.078;15.536;2023-06-14T14:31:43;17.70;94.70
29687;DHT22;16599;47.078;15.536;2023-06-14T14:34:11;17.90;94.30
29687;DHT22;16599;47.078;15.536;2023-06-14T14:36:38;18.30;94.30
29687;DHT22;16599;47.078;15.536;2023-06-14T14:39:09;18.40;92.60
29687;DHT22;16599;47.078;15.536;2023-06-14T14:41:36;18.40;92.70
29687;DHT22;16599;47.078;15.536;2023-06-14T14:44:08;18.00;94.10
29687;DHT22;16599;47.078;15.536;2023-06-14T14:46:34;17.90;95.10
29687;DHT22;16599;47.078;15.536;2023-06-14T14:49:02;17.80;94.00
29687;DHT22;16599;47.078;15.536;2023-06-14T14:51:29;17.70;95.10
29687;DHT22;16599;47.078;15.536;2023-06-14T14:53:56;17.80;95.70
29687;DHT22;16599;47.078;15.536;2023-06-14T14:56:23;18.00;96.30
29687;DHT22;16599;47.078;15.536;2023-06-14T14:58:50;18.30;95.00
29687;DHT22;16599;47.078;15.536;2023-06-14T15:01:17;18.30;95.70
29687;DHT22;16599;47.078;15.536;2023-06-14T15:03:45;18.40;94.50
29687;DHT22;16599;47.078;15.536;2023-06-14T15:06:15;18.60;93.00
29687;DHT22;16599;47.078;15.536;2023-06-14T15:08:42;19.20;94.40
29687;DHT22;16599;47.078;15.536;2023-06-14T15:11:11;19.50;93.50
29687;DHT22;16599;47.078;15.536;2023-06-14T15:13:38;19.70;92.70
29687;DHT22;16599;47.078;15.536;2023-06-14T15:16:05;19.10;93.00
29687;DHT22;16599;47.078;15.536;2023-06-14T15:18:32;18.60;92.60
29687;DHT22;16599;47.078;15.536;2023-06-14T15:20:59;18.40;94.90
29687;DHT22;16599;47.078;15.536;2023-06-14T15:23:26;18.00;95.30
29687;DHT22;16599;47.078;15.536;2023-06-14T15:25:53;17.90;94.70
29687;DHT22;16599;47.078;15.536;2023-06-14T15:28:19;17.90;94.10
29687;DHT22;16599;47.078;15.536;2023-06-14T15:30:48;17.80;92.80
29687;DHT22;16599;47.078;15.536;2023-06-14T15:33:14;17.90;93.20
29687;DHT22;16599;47.078;15.536;2023-06-14T15:35:42;17.80;93.30
29687;DHT22;16599;47.078;15.536;2023-06-14T15:38:08;18.00;92.30
29687;DHT22;16599;47.078;15.536;2023-06-14T15:40:35;18.30;92.90
29687;DHT22;16599;47.078;15.536;2023-06-14T15:43:02;18.60;94.60
29687;DHT22;16599;47.078;15.536;2023-06-14T15:45:30;18.80;95.40